createdAt,value
2022-11-13T00:00:55.543Z,3.97
2022-11-13T00:03:22.043Z,3.98
2022-11-13T00:05:48.365Z,4.01
2022-11-13T00:08:14.839Z,3.95
2022-11-13T00:10:41.152Z,3.92
2022-11-13T00:13:07.457Z,3.91
2022-11-13T00:15:33.790Z,3.94
2022-11-13T00:18:02.004Z,3.82
2022-11-13T00:20:28.421Z,3.70
2022-11-13T00:22:54.858Z,3.79
2022-11-13T00:25:21.153Z,3.66
2022-11-13T00:27:47.441Z,3.38
2022-11-13T00:30:18.927Z,3.34
2022-11-13T00:32:45.687Z,3.26
2022-11-13T00:35:12.014Z,3.25
2022-11-13T00:37:38.312Z,3.29
2022-11-13T00:40:05.302Z,3.35
2022-11-13T00:42:31.577Z,3.44
2022-11-13T00:44:57.854Z,3.42
2022-11-13T00:47:24.131Z,3.53
2022-11-13T00:49:50.412Z,3.57
2022-11-13T00:52:16.706Z,3.49
2022-11-13T00:54:42.981Z,3.59
2022-11-13T00:57:09.262Z,3.49
2022-11-13T00:59:35.570Z,3.48
2022-11-13T01:02:01.909Z,3.55
2022-11-13T01:04:28.869Z,3.62
2022-11-13T01:06:55.578Z,3.62
2022-11-13T01:09:21.941Z,3.67
2022-11-13T01:11:48.214Z,3.68
2022-11-13T01:14:14.664Z,3.68
2022-11-13T01:16:41.055Z,3.69
2022-11-13T01:19:07.662Z,3.67
2022-11-13T01:21:33.957Z,3.65
2022-11-13T01:24:01.445Z,3.73
2022-11-13T01:26:29.652Z,3.76
2022-11-13T01:28:57.828Z,3.75
2022-11-13T01:31:26.148Z,3.75
2022-11-13T01:33:52.606Z,3.69
2022-11-13T01:36:23.062Z,3.76
2022-11-13T01:38:49.919Z,3.83
2022-11-13T01:41:23.418Z,3.82
2022-11-13T01:43:51.133Z,3.79
2022-11-13T01:46:21.413Z,3.79
2022-11-13T01:49:02.814Z,3.76
2022-11-13T01:51:45.263Z,3.73
2022-11-13T01:54:16.054Z,3.61
2022-11-13T01:56:43.539Z,3.56
2022-11-13T01:59:16.916Z,3.55
2022-11-13T02:01:43.322Z,3.47
2022-11-13T02:04:09.734Z,3.46
2022-11-13T02:06:45.813Z,3.46
2022-11-13T02:09:14.409Z,3.54
2022-11-13T02:11:41.393Z,3.51
2022-11-13T02:14:09.150Z,3.48
2022-11-13T02:16:37.715Z,3.47
2022-11-13T02:19:10.267Z,3.50
2022-11-13T02:22:08.166Z,3.50
2022-11-13T02:24:44.657Z,3.52
2022-11-13T02:27:32.702Z,3.56
2022-11-13T02:29:59.002Z,3.56
2022-11-13T02:32:25.280Z,3.58
2022-11-13T02:34:51.622Z,3.59
2022-11-13T02:37:18.319Z,3.64
2022-11-13T02:39:44.593Z,3.66
2022-11-13T02:42:10.931Z,3.72
2022-11-13T02:44:37.270Z,3.70
2022-11-13T02:47:03.673Z,3.73
2022-11-13T02:49:30.040Z,3.72
2022-11-13T02:51:56.337Z,3.79
2022-11-13T02:54:22.733Z,3.80
2022-11-13T02:56:49.023Z,3.77
2022-11-13T02:59:15.372Z,3.79
2022-11-13T03:01:41.756Z,3.88
2022-11-13T03:04:08.132Z,3.92
2022-11-13T03:06:34.410Z,3.90
2022-11-13T03:09:00.678Z,3.87
2022-11-13T03:11:26.953Z,3.94
2022-11-13T03:13:53.345Z,3.95
2022-11-13T03:16:19.680Z,4.00
2022-11-13T03:18:45.988Z,4.01
2022-11-13T03:21:14.580Z,4.06
2022-11-13T03:23:42.411Z,4.08
2022-11-13T03:26:12.560Z,4.11
2022-11-13T03:28:38.876Z,4.06
2022-11-13T03:31:05.790Z,4.00
2022-11-13T03:33:32.714Z,4.00
2022-11-13T03:35:59.006Z,3.98
2022-11-13T03:38:25.646Z,4.05
2022-11-13T03:40:52.371Z,4.09
2022-11-13T03:43:18.950Z,4.04
2022-11-13T03:45:47.104Z,4.05
2022-11-13T03:48:15.244Z,3.92
2022-11-13T03:50:48.137Z,3.95
2022-11-13T03:53:14.844Z,4.05
2022-11-13T03:55:42.183Z,4.23
2022-11-13T03:58:08.571Z,4.05
2022-11-13T04:00:35.132Z,3.93
2022-11-13T04:03:01.497Z,3.77
2022-11-13T04:05:27.966Z,3.91
2022-11-13T04:07:54.457Z,4.04
2022-11-13T04:10:20.856Z,4.06
2022-11-13T04:12:47.367Z,4.14
2022-11-13T04:15:13.736Z,4.20
2022-11-13T04:17:40.212Z,4.31
2022-11-13T04:20:07.259Z,4.32
2022-11-13T04:22:33.554Z,4.37
2022-11-13T04:25:00.002Z,4.23
2022-11-13T04:27:26.340Z,4.30
2022-11-13T04:29:53.100Z,4.28
2022-11-13T04:32:19.361Z,4.25
2022-11-13T04:34:45.625Z,4.27
2022-11-13T04:37:11.934Z,4.25
2022-11-13T04:39:38.213Z,4.33
2022-11-13T04:42:23.351Z,4.36
2022-11-13T04:44:49.674Z,4.42
2022-11-13T04:47:15.972Z,4.53
2022-11-13T04:49:42.328Z,4.61
2022-11-13T04:52:08.626Z,4.52
2022-11-13T04:54:35.209Z,4.50
2022-11-13T04:57:01.485Z,4.61
2022-11-13T04:59:27.754Z,4.44
2022-11-13T05:01:55.663Z,4.28
2022-11-13T05:04:22.510Z,4.32
2022-11-13T05:06:49.106Z,4.44
2022-11-13T05:09:16.091Z,4.44
2022-11-13T05:11:42.460Z,4.49
2022-11-13T05:14:11.743Z,4.57
2022-11-13T05:16:38.364Z,4.61
2022-11-13T05:19:06.808Z,4.60
2022-11-13T05:21:34.638Z,4.60
2022-11-13T05:24:01.014Z,4.53
2022-11-13T05:26:27.391Z,4.58
2022-11-13T05:28:56.942Z,4.60
2022-11-13T05:31:23.274Z,4.64
2022-11-13T05:33:49.677Z,4.64
2022-11-13T05:36:18.292Z,4.62
2022-11-13T05:38:45.463Z,4.65
2022-11-13T05:41:13.847Z,4.61
2022-11-13T05:43:40.407Z,4.61
2022-11-13T05:46:24.439Z,4.64
2022-11-13T05:48:56.374Z,4.61
2022-11-13T05:51:28.714Z,4.50
2022-11-13T05:53:55.519Z,4.53
2022-11-13T05:56:40.403Z,4.59
2022-11-13T05:59:06.780Z,4.54
2022-11-13T06:01:36.165Z,4.63
2022-11-13T06:04:03.762Z,4.61
2022-11-13T06:06:31.316Z,4.55
2022-11-13T06:09:00.460Z,4.54
2022-11-13T06:11:29.284Z,4.57
2022-11-13T06:13:56.971Z,4.45
2022-11-13T06:16:26.318Z,4.50
2022-11-13T06:18:58.051Z,4.51
2022-11-13T06:21:27.578Z,4.54
2022-11-13T06:23:54.215Z,4.51
2022-11-13T06:26:23.739Z,4.57
2022-11-13T06:28:50.174Z,4.49
2022-11-13T06:31:22.933Z,4.59
2022-11-13T06:33:49.656Z,4.52
2022-11-13T06:36:19.011Z,4.53
2022-11-13T06:38:45.995Z,4.50
2022-11-13T06:41:14.410Z,4.53
2022-11-13T06:43:41.325Z,4.50
2022-11-13T06:46:13.971Z,4.52
2022-11-13T06:48:40.400Z,4.49
2022-11-13T06:51:09.512Z,4.53
2022-11-13T06:53:35.817Z,4.60
2022-11-13T06:56:06.096Z,4.63
2022-11-13T06:58:33.055Z,4.63
2022-11-13T07:01:09.124Z,4.65
2022-11-13T07:03:35.966Z,4.69
2022-11-13T07:06:07.580Z,4.73
2022-11-13T07:08:34.678Z,4.75
2022-11-13T07:11:01.392Z,4.72
2022-11-13T07:13:28.722Z,4.75
2022-11-13T07:15:55.017Z,4.83
2022-11-13T07:18:24.165Z,4.86
2022-11-13T07:20:50.722Z,4.90
2022-11-13T07:23:16.997Z,4.93
2022-11-13T07:25:43.287Z,4.99
2022-11-13T07:28:09.586Z,5.03
2022-11-13T07:30:35.893Z,5.11
2022-11-13T07:33:05.585Z,5.13
2022-11-13T07:35:31.873Z,5.16
2022-11-13T07:37:59.003Z,5.14
2022-11-13T07:40:25.920Z,5.25
2022-11-13T07:42:59.829Z,5.29
2022-11-13T07:45:27.847Z,5.28
2022-11-13T07:48:04.482Z,5.36
2022-11-13T07:50:33.283Z,5.36
2022-11-13T07:53:05.542Z,5.37
2022-11-13T07:55:33.937Z,5.40
2022-11-13T07:58:01.012Z,5.48
2022-11-13T08:00:28.774Z,5.53
2022-11-13T08:02:55.585Z,5.59
2022-11-13T08:05:22.304Z,5.64
2022-11-13T08:07:51.347Z,5.66
2022-11-13T08:10:19.328Z,5.74
2022-11-13T08:12:45.950Z,5.68
2022-11-13T08:15:13.641Z,5.71
2022-11-13T08:17:40.289Z,5.54
2022-11-13T08:20:07.917Z,5.66
2022-11-13T08:22:34.281Z,5.68
2022-11-13T08:25:01.117Z,5.65
2022-11-13T08:27:27.501Z,5.76
2022-11-13T08:29:53.936Z,5.85
2022-11-13T08:32:20.458Z,5.95
2022-11-13T08:34:46.792Z,5.99
2022-11-13T08:37:13.092Z,5.90
2022-11-13T08:39:39.358Z,5.95
2022-11-13T08:42:05.748Z,5.93
2022-11-13T08:44:35.061Z,5.96
2022-11-13T08:47:01.385Z,5.99
2022-11-13T08:49:27.678Z,5.94
2022-11-13T08:51:53.961Z,5.92
2022-11-13T08:54:20.768Z,5.89
2022-11-13T08:56:53.002Z,6.06
2022-11-13T08:59:23.517Z,6.01
2022-11-13T09:01:50.314Z,6.12
2022-11-13T09:04:16.599Z,6.25
2022-11-13T09:06:42.915Z,6.33
2022-11-13T09:09:09.257Z,6.22
2022-11-13T09:11:35.560Z,6.20
2022-11-13T09:14:01.893Z,6.14
2022-11-13T09:16:28.365Z,6.13
2022-11-13T09:18:54.636Z,6.16
2022-11-13T09:21:20.980Z,6.08
2022-11-13T09:23:47.300Z,6.09
2022-11-13T09:26:13.737Z,6.20
2022-11-13T09:28:40.055Z,6.11
2022-11-13T09:31:06.796Z,6.09
2022-11-13T09:33:34.122Z,6.10
2022-11-13T09:36:00.569Z,6.08
2022-11-13T09:38:27.151Z,6.11
2022-11-13T09:41:17.252Z,6.21
2022-11-13T09:43:53.035Z,6.10
2022-11-13T09:46:42.921Z,6.18
2022-11-13T09:49:09.182Z,6.17
2022-11-13T09:51:37.937Z,6.14
2022-11-13T09:54:07.535Z,6.12
2022-11-13T09:57:10.333Z,6.21
2022-11-13T10:00:02.627Z,6.18
2022-11-13T10:03:06.724Z,5.99
2022-11-13T10:05:54.267Z,6.07
2022-11-13T10:08:43.866Z,6.13
2022-11-13T10:11:25.691Z,6.16
2022-11-13T10:14:01.493Z,6.27
2022-11-13T10:16:40.984Z,6.24
2022-11-13T10:19:15.270Z,6.19
2022-11-13T10:21:48.097Z,6.23
2022-11-13T10:24:41.927Z,6.21
2022-11-13T10:27:10.748Z,6.27
2022-11-13T10:29:37.785Z,6.25
2022-11-13T10:32:18.497Z,6.34
2022-11-13T10:35:07.771Z,6.34
2022-11-13T10:37:55.273Z,6.33
2022-11-13T10:40:32.195Z,6.41
2022-11-13T10:43:26.024Z,6.44
2022-11-13T10:45:58.555Z,6.38
2022-11-13T10:48:34.048Z,6.30
2022-11-13T10:51:26.318Z,6.41
2022-11-13T10:53:53.690Z,6.42
2022-11-13T10:56:36.017Z,6.47
2022-11-13T10:59:14.000Z,6.49
2022-11-13T11:01:42.170Z,6.52
2022-11-13T11:04:27.339Z,6.54
2022-11-13T11:07:19.216Z,6.54
2022-11-13T11:09:43.265Z,6.53
2022-11-13T11:12:16.334Z,6.52
2022-11-13T11:15:05.549Z,6.58
2022-11-13T11:17:38.250Z,6.64
2022-11-13T11:20:16.548Z,6.64
2022-11-13T11:22:45.700Z,6.72
2022-11-13T11:25:30.943Z,6.77
2022-11-13T11:28:07.030Z,6.79
2022-11-13T11:30:43.984Z,6.85
2022-11-13T11:33:19.636Z,6.83
2022-11-13T11:35:55.151Z,6.78
2022-11-13T11:38:28.810Z,6.76
2022-11-13T11:41:14.960Z,6.79
2022-11-13T11:43:43.622Z,6.86
2022-11-13T11:46:16.079Z,6.83
2022-11-13T11:48:42.399Z,6.89
2022-11-13T11:51:32.458Z,6.83
2022-11-13T11:54:04.849Z,6.83
2022-11-13T11:56:41.880Z,6.82
2022-11-13T11:59:45.107Z,6.73
2022-11-13T12:02:37.785Z,6.82
2022-11-13T12:05:20.181Z,6.80
2022-11-13T12:08:25.617Z,6.94
2022-11-13T12:11:26.310Z,7.01
2022-11-13T12:14:01.627Z,6.98
2022-11-13T12:16:31.916Z,6.93
2022-11-13T12:19:10.805Z,6.92
2022-11-13T12:21:57.103Z,6.97
2022-11-13T12:24:58.201Z,7.08
2022-11-13T12:27:42.543Z,7.12
2022-11-13T12:30:13.514Z,7.12
2022-11-13T12:33:08.091Z,7.14
2022-11-13T12:35:35.537Z,7.16
2022-11-13T12:38:01.782Z,7.21
2022-11-13T12:40:36.599Z,7.23
2022-11-13T12:43:38.533Z,7.12
2022-11-13T12:46:10.105Z,7.15
2022-11-13T12:48:45.440Z,7.13
2022-11-13T12:51:17.645Z,7.18
2022-11-13T12:53:46.090Z,7.20
2022-11-13T12:56:28.573Z,7.23
2022-11-13T12:59:31.648Z,7.11
2022-11-13T13:02:15.904Z,7.08
2022-11-13T13:05:19.753Z,7.13
2022-11-13T13:08:05.281Z,7.16
2022-11-13T13:10:41.203Z,7.14
2022-11-13T13:13:32.010Z,7.13
2022-11-13T13:16:02.698Z,7.14
2022-11-13T13:18:39.796Z,7.20
2022-11-13T13:21:07.745Z,7.22
2022-11-13T13:23:36.233Z,7.15
2022-11-13T13:26:21.251Z,7.18
2022-11-13T13:28:55.561Z,7.30
2022-11-13T13:31:38.325Z,7.37
2022-11-13T13:34:19.262Z,7.32
2022-11-13T13:37:03.411Z,7.29
2022-11-13T13:39:38.238Z,7.28
2022-11-13T13:42:16.996Z,7.31
2022-11-13T13:44:55.933Z,7.32
2022-11-13T13:47:32.108Z,7.42
2022-11-13T13:49:58.812Z,7.47
2022-11-13T13:52:34.796Z,7.45
2022-11-13T13:55:03.741Z,7.40
2022-11-13T13:57:30.386Z,7.42
2022-11-13T13:59:57.865Z,7.47
2022-11-13T14:02:24.719Z,7.42
2022-11-13T14:04:53.629Z,7.44
2022-11-13T14:07:24.945Z,7.43
2022-11-13T14:10:05.461Z,7.40
2022-11-13T14:12:31.804Z,7.45
2022-11-13T14:14:58.198Z,7.47
2022-11-13T14:17:25.654Z,7.47
2022-11-13T14:19:53.640Z,7.48
2022-11-13T14:22:21.136Z,7.48
2022-11-13T14:24:49.903Z,7.47
2022-11-13T14:27:20.790Z,7.44
2022-11-13T14:29:50.028Z,7.46
2022-11-13T14:32:22.106Z,7.47
2022-11-13T14:34:51.606Z,7.50
2022-11-13T14:37:35.612Z,7.52
2022-11-13T14:40:14.357Z,7.50
2022-11-13T14:42:46.887Z,7.57
2022-11-13T14:45:17.866Z,7.57
2022-11-13T14:47:55.027Z,7.58
2022-11-13T14:50:25.294Z,7.58
2022-11-13T14:53:02.077Z,7.62
2022-11-13T14:55:37.281Z,7.67
2022-11-13T14:58:04.331Z,7.63
2022-11-13T15:00:38.124Z,7.62
2022-11-13T15:03:06.369Z,7.56
2022-11-13T15:05:32.927Z,7.54
2022-11-13T15:07:59.948Z,7.49
2022-11-13T15:10:29.028Z,7.50
2022-11-13T15:12:55.546Z,7.55
2022-11-13T15:15:27.569Z,7.56
2022-11-13T15:17:55.387Z,7.56
2022-11-13T15:20:27.633Z,7.60
2022-11-13T15:22:55.024Z,7.66
2022-11-13T15:25:23.544Z,7.64
2022-11-13T15:27:50.521Z,7.66
2022-11-13T15:30:17.139Z,7.64
2022-11-13T15:32:44.063Z,7.69
2022-11-13T15:35:15.378Z,7.72
2022-11-13T15:37:41.689Z,7.76
2022-11-13T15:40:08.473Z,7.80
2022-11-13T15:42:36.253Z,7.83
2022-11-13T15:45:05.948Z,7.73
2022-11-13T15:47:36.827Z,7.71
2022-11-13T15:50:14.462Z,7.68
2022-11-13T15:52:45.012Z,7.76
2022-11-13T15:55:26.476Z,7.76
2022-11-13T15:57:53.669Z,7.78
2022-11-13T16:00:25.521Z,7.84
2022-11-13T16:02:55.194Z,7.87
2022-11-13T16:05:27.252Z,7.85
2022-11-13T16:07:54.593Z,7.83
2022-11-13T16:10:22.682Z,7.85
2022-11-13T16:12:49.010Z,7.86
2022-11-13T16:15:16.999Z,7.91
2022-11-13T16:17:50.531Z,7.94
2022-11-13T16:20:17.708Z,7.90
2022-11-13T16:22:44.688Z,7.90
2022-11-13T16:25:13.514Z,7.93
2022-11-13T16:27:39.946Z,7.95
2022-11-13T16:30:10.327Z,7.95
2022-11-13T16:32:36.624Z,7.92
2022-11-13T16:35:02.931Z,7.95
2022-11-13T16:37:29.201Z,7.94
2022-11-13T16:39:56.334Z,7.97
2022-11-13T16:42:24.140Z,8.01
2022-11-13T16:44:53.438Z,7.99
2022-11-13T16:47:23.677Z,7.97
2022-11-13T16:49:50.644Z,7.99
2022-11-13T16:52:17.942Z,7.98
2022-11-13T16:54:44.574Z,7.99
2022-11-13T16:57:12.749Z,8.02
2022-11-13T16:59:39.639Z,8.03
2022-11-13T17:02:17.587Z,8.09
2022-11-13T17:04:44.591Z,8.09
2022-11-13T17:07:13.008Z,8.14
2022-11-13T17:09:44.236Z,8.15
2022-11-13T17:12:11.279Z,8.16
2022-11-13T17:14:38.654Z,8.17
2022-11-13T17:17:06.692Z,8.18
2022-11-13T17:19:33.406Z,8.18
2022-11-13T17:22:00.004Z,8.20
2022-11-13T17:24:26.364Z,8.17
2022-11-13T17:26:52.635Z,8.17
2022-11-13T17:29:19.960Z,8.17
2022-11-13T17:31:46.257Z,8.14
2022-11-13T17:34:12.524Z,8.20
2022-11-13T17:36:38.805Z,8.25
2022-11-13T17:39:05.143Z,8.19
2022-11-13T17:41:31.561Z,8.21
2022-11-13T17:44:01.244Z,8.21
2022-11-13T17:46:28.197Z,8.22
2022-11-13T17:48:54.671Z,8.22
2022-11-13T17:51:21.239Z,8.23
2022-11-13T17:53:47.595Z,8.30
2022-11-13T17:56:14.108Z,8.27
2022-11-13T17:58:42.582Z,8.27
2022-11-13T18:01:17.596Z,8.28
2022-11-13T18:03:44.003Z,8.22
2022-11-13T18:06:13.690Z,8.26
2022-11-13T18:08:43.194Z,8.25
2022-11-13T18:11:24.786Z,8.29
2022-11-13T18:13:51.984Z,8.30
2022-11-13T18:16:29.410Z,8.30
2022-11-13T18:18:57.771Z,8.28
2022-11-13T18:21:27.778Z,8.23
2022-11-13T18:23:59.882Z,8.31
2022-11-13T18:26:28.014Z,8.25
2022-11-13T18:28:54.649Z,8.25
2022-11-13T18:31:21.291Z,8.23
2022-11-13T18:33:47.757Z,8.27
2022-11-13T18:36:14.857Z,8.27
2022-11-13T18:38:43.273Z,8.27
2022-11-13T18:41:12.575Z,8.29
2022-11-13T18:43:38.999Z,8.30
2022-11-13T18:46:07.482Z,8.30
2022-11-13T18:48:36.349Z,8.30
2022-11-13T18:51:09.404Z,8.32
2022-11-13T18:53:36.552Z,8.35
2022-11-13T18:56:07.015Z,8.28
2022-11-13T18:58:37.524Z,8.23
2022-11-13T19:01:18.883Z,8.18
2022-11-13T19:04:08.256Z,8.22
2022-11-13T19:06:36.567Z,8.26
2022-11-13T19:09:07.130Z,8.30
2022-11-13T19:11:34.024Z,8.29
2022-11-13T19:14:00.694Z,8.34
2022-11-13T19:16:31.232Z,8.38
2022-11-13T19:18:59.614Z,8.38
2022-11-13T19:21:28.753Z,8.42
2022-11-13T19:23:55.728Z,8.47
2022-11-13T19:26:22.747Z,8.47
2022-11-13T19:28:51.821Z,8.52
2022-11-13T19:31:24.941Z,8.47
2022-11-13T19:33:59.428Z,8.44
2022-11-13T19:36:28.067Z,8.33
2022-11-13T19:38:55.684Z,8.29
2022-11-13T19:41:23.161Z,8.29
2022-11-13T19:43:49.626Z,8.29
2022-11-13T19:46:17.677Z,8.27
2022-11-13T19:48:45.675Z,8.30
2022-11-13T19:51:14.673Z,8.27
2022-11-13T19:53:47.650Z,8.23
2022-11-13T19:56:15.772Z,8.25
2022-11-13T19:58:44.168Z,8.28
2022-11-13T20:01:12.453Z,8.32
2022-11-13T20:03:39.249Z,8.30
2022-11-13T20:06:06.763Z,8.33
2022-11-13T20:08:37.425Z,8.27
2022-11-13T20:11:05.739Z,8.16
2022-11-13T20:13:34.329Z,8.18
2022-11-13T20:16:01.350Z,8.06
2022-11-13T20:18:28.058Z,8.07
2022-11-13T20:20:55.189Z,8.04
2022-11-13T20:23:21.779Z,8.02
2022-11-13T20:26:09.986Z,8.00
2022-11-13T20:28:36.363Z,8.02
2022-11-13T20:31:23.122Z,8.05
2022-11-13T20:33:50.702Z,8.13
2022-11-13T20:36:17.410Z,8.15
2022-11-13T20:38:49.374Z,8.16
2022-11-13T20:41:15.738Z,8.10
2022-11-13T20:43:42.558Z,8.12
2022-11-13T20:46:11.544Z,8.16
2022-11-13T20:48:38.382Z,8.14
2022-11-13T20:51:21.881Z,8.18
2022-11-13T20:53:49.208Z,8.22
2022-11-13T20:56:16.945Z,8.20
2022-11-13T20:58:43.283Z,8.21
2022-11-13T21:01:18.506Z,8.23
2022-11-13T21:03:45.754Z,8.23
2022-11-13T21:06:15.516Z,8.23
2022-11-13T21:08:42.180Z,8.21
2022-11-13T21:11:13.988Z,8.20
2022-11-13T21:13:40.279Z,8.23
2022-11-13T21:16:08.231Z,8.26
2022-11-13T21:18:35.224Z,8.21
2022-11-13T21:21:06.674Z,8.25
2022-11-13T21:23:33.035Z,8.30
2022-11-13T21:26:04.438Z,8.23
2022-11-13T21:28:33.652Z,8.21
2022-11-13T21:31:05.974Z,8.23
2022-11-13T21:33:40.143Z,8.18
2022-11-13T21:36:13.345Z,8.19
2022-11-13T21:38:40.183Z,8.13
2022-11-13T21:41:24.486Z,8.10
2022-11-13T21:43:58.388Z,8.08
2022-11-13T21:46:27.868Z,8.14
2022-11-13T21:48:59.782Z,8.09
2022-11-13T21:51:26.787Z,8.11
2022-11-13T21:53:53.113Z,8.07
2022-11-13T21:56:19.509Z,8.09
2022-11-13T21:58:45.829Z,8.03
2022-11-13T22:01:13.232Z,8.07
2022-11-13T22:03:40.272Z,8.07
2022-11-13T22:06:25.321Z,8.05
2022-11-13T22:08:59.589Z,8.02
2022-11-13T22:11:28.178Z,8.02
2022-11-13T22:13:55.179Z,7.98
2022-11-13T22:16:22.279Z,7.96
2022-11-13T22:18:52.565Z,7.94
2022-11-13T22:21:18.839Z,7.93
2022-11-13T22:23:45.133Z,7.93
2022-11-13T22:26:13.809Z,7.94
2022-11-13T22:28:41.621Z,7.91
2022-11-13T22:31:11.434Z,7.90
2022-11-13T22:33:37.708Z,7.91
2022-11-13T22:36:12.537Z,7.92
2022-11-13T22:38:40.155Z,7.91
2022-11-13T22:41:10.629Z,7.92
2022-11-13T22:43:41.319Z,7.89
2022-11-13T22:46:10.720Z,7.84
2022-11-13T22:48:38.555Z,7.81
2022-11-13T22:51:13.840Z,7.80
2022-11-13T22:53:41.835Z,7.79
2022-11-13T22:56:11.194Z,7.83
2022-11-13T22:58:37.667Z,7.79
2022-11-13T23:01:06.405Z,7.73
2022-11-13T23:03:35.970Z,7.70
2022-11-13T23:06:02.745Z,7.69
2022-11-13T23:08:31.124Z,7.72
2022-11-13T23:10:57.762Z,7.69
2022-11-13T23:13:25.181Z,7.61
2022-11-13T23:15:51.565Z,7.61
2022-11-13T23:18:17.868Z,7.60
2022-11-13T23:20:44.431Z,7.59
2022-11-13T23:23:10.766Z,7.57
2022-11-13T23:25:37.127Z,7.57
2022-11-13T23:28:03.600Z,7.53
2022-11-13T23:30:29.905Z,7.46
2022-11-13T23:32:56.187Z,7.44
2022-11-13T23:35:22.566Z,7.47
2022-11-13T23:37:48.849Z,7.44
2022-11-13T23:40:15.144Z,7.40
2022-11-13T23:42:54.639Z,7.41
2022-11-13T23:45:21.827Z,7.37
2022-11-13T23:47:48.104Z,7.40
2022-11-13T23:50:14.603Z,7.30
2022-11-13T23:52:40.884Z,7.37
2022-11-13T23:55:07.719Z,7.40
2022-11-13T23:57:34.032Z,7.38
